Time;durP1;ratioP1;P1;durP2;ratioP2;P2;SDS_P1;SDS_P2;PMS_P1;PMS_P2;Temp;Humidity;BMP_temperature;BMP_pressure;BME280_temperature;BME280_humidity;BME280_pressure;Samples;Min_cycle;Max_cycle;Signal;HPM_P1;HPM_P2
2023/04/05 00:01:06;;;;;;;1.00;1.00;;;4.20;99.90;;;;;;5007907;28;20276;-65
2023/04/05 00:03:34;;;;;;;1.30;1.20;;;4.20;99.90;;;;;;5001910;28;20213;-65
2023/04/05 00:06:01;;;;;;;0.90;0.90;;;4.30;99.90;;;;;;4996423;28;20237;-64
2023/04/05 00:08:28;;;;;;;0.90;0.90;;;4.30;99.90;;;;;;4994250;28;20256;-64
2023/04/05 00:10:55;;;;;;;0.97;0.97;;;4.30;99.90;;;;;;4993153;28;20274;-65
2023/04/05 00:13:24;;;;;;;1.37;1.03;;;4.20;99.90;;;;;;4993676;28;20677;-63
2023/04/05 00:15:51;;;;;;;1.20;1.10;;;4.30;99.90;;;;;;4993131;28;20264;-65
2023/04/05 00:18:22;;;;;;;1.17;1.17;;;4.30;99.90;;;;;;4993512;28;20212;-63
2023/04/05 00:20:49;;;;;;;1.30;1.20;;;4.40;99.90;;;;;;4993475;28;20230;-64
2023/04/05 00:23:17;;;;;;;1.00;1.00;;;4.40;99.90;;;;;;4995549;28;20735;-65
2023/04/05 00:25:44;;;;;;;0.90;0.90;;;4.40;99.90;;;;;;4993335;28;20591;-64
2023/04/05 00:28:11;;;;;;;1.00;1.00;;;4.50;99.90;;;;;;5000024;28;20216;-64
2023/04/05 00:30:40;;;;;;;2.67;1.20;;;4.50;99.90;;;;;;5005806;28;20216;-64
2023/04/05 00:33:06;;;;;;;1.15;1.15;;;4.60;99.90;;;;;;4998874;28;20260;-65
2023/04/05 00:35:33;;;;;;;0.80;0.80;;;4.70;99.90;;;;;;4997833;28;20279;-64
2023/04/05 00:38:00;;;;;;;1.00;1.00;;;4.50;99.90;;;;;;4995972;28;20645;-65
2023/04/05 00:40:27;;;;;;;1.00;1.00;;;4.50;99.90;;;;;;4993464;28;20208;-64
2023/04/05 00:42:54;;;;;;;0.90;0.90;;;4.50;99.90;;;;;;4993548;28;20210;-64
2023/04/05 00:45:21;;;;;;;1.10;1.10;;;4.50;99.90;;;;;;4996195;28;20656;-64
2023/04/05 00:47:49;;;;;;;1.23;1.13;;;4.50;99.90;;;;;;4993097;28;20569;-65
2023/04/05 00:50:17;;;;;;;1.10;1.10;;;4.60;99.90;;;;;;4992208;28;20214;-64
2023/04/05 00:52:44;;;;;;;1.20;1.20;;;4.50;99.90;;;;;;4992780;28;20297;-64
2023/04/05 00:55:12;;;;;;;1.30;1.20;;;4.50;99.90;;;;;;4992336;28;20202;-64
2023/04/05 00:57:39;;;;;;;1.10;1.10;;;4.40;99.90;;;;;;4993102;28;20264;-65
2023/04/05 01:00:10;;;;;;;1.20;1.20;;;4.30;99.90;;;;;;4991812;28;20214;-63
2023/04/05 01:02:44;;;;;;;1.10;1.10;;;4.30;99.90;;;;;;4992473;28;20205;-64
2023/04/05 01:05:24;;;;;;;1.10;1.10;;;4.30;99.90;;;;;;4992480;28;20222;-65
2023/04/05 01:07:58;;;;;;;1.17;1.07;;;4.30;99.90;;;;;;4992661;28;20253;-65
2023/04/05 01:10:31;;;;;;;1.00;1.00;;;4.30;99.90;;;;;;4991795;28;20213;-64
2023/04/05 01:12:58;;;;;;;1.40;1.30;;;4.30;99.90;;;;;;4988456;28;20205;-64
2023/04/05 01:15:25;;;;;;;1.20;1.20;;;4.20;99.90;;;;;;5006590;28;20597;-65
2023/04/05 01:17:53;;;;;;;1.00;1.00;;;4.20;99.90;;;;;;4998178;28;20226;-65
2023/04/05 01:20:24;;;;;;;1.02;1.02;;;4.10;99.90;;;;;;4991796;28;20288;-63
2023/04/05 01:23:29;;;;;;;1.20;1.20;;;4.10;99.90;;;;;;4989695;28;20234;-65
2023/04/05 01:26:31;;;;;;;1.20;1.20;;;4.10;99.90;;;;;;4992310;28;20708;-65
2023/04/05 01:29:47;;;;;;;1.10;1.10;;;4.00;99.90;;;;;;4992614;28;20209;-65
2023/04/05 01:32:24;;;;;;;1.20;1.20;;;3.80;99.90;;;;;;4992851;28;20227;-65
2023/04/05 01:34:56;;;;;;;1.20;1.20;;;3.70;99.90;;;;;;4993201;28;20212;-64
2023/04/05 01:37:30;;;;;;;1.40;1.30;;;3.60;99.90;;;;;;4993345;28;20241;-64
2023/04/05 01:39:58;;;;;;;1.17;1.17;;;3.50;99.90;;;;;;4991656;28;20584;-64
2023/04/05 01:42:26;;;;;;;1.10;1.10;;;3.40;99.90;;;;;;4992254;28;20592;-64
2023/04/05 01:44:53;;;;;;;1.40;1.30;;;3.40;99.90;;;;;;4992670;28;20224;-65
2023/04/05 01:47:21;;;;;;;1.20;1.20;;;3.40;99.90;;;;;;4992170;28;20233;-65
2023/04/05 01:49:48;;;;;;;1.20;1.20;;;3.40;99.90;;;;;;4991682;28;20206;-65
2023/04/05 01:52:15;;;;;;;1.00;1.00;;;3.40;99.90;;;;;;4991784;28;20698;-65
2023/04/05 01:54:42;;;;;;;1.10;1.10;;;3.40;99.90;;;;;;4992034;28;20210;-63
2023/04/05 01:57:09;;;;;;;1.20;1.20;;;3.50;99.90;;;;;;4992091;28;20232;-64
2023/04/05 01:59:35;;;;;;;1.00;1.00;;;3.50;99.90;;;;;;4991393;28;20206;-65
2023/04/05 02:02:03;;;;;;;1.10;1.10;;;3.50;99.90;;;;;;4992080;28;20691;-65
2023/04/05 02:04:31;;;;;;;0.90;0.90;;;3.50;99.90;;;;;;4992338;28;20206;-65
2023/04/05 02:06:59;;;;;;;0.98;0.98;;;3.50;99.90;;;;;;4994703;28;20234;-65
2023/04/05 02:09:26;;;;;;;1.02;1.02;;;3.50;99.90;;;;;;4995766;28;20209;-65
2023/04/05 02:11:53;;;;;;;1.10;1.10;;;3.40;99.90;;;;;;4995968;28;20673;-65
2023/04/05 02:14:19;;;;;;;1.20;1.10;;;3.40;99.90;;;;;;4995715;28;20242;-65
2023/04/05 02:16:46;;;;;;;1.10;1.10;;;3.30;99.90;;;;;;4996167;28;20229;-64
2023/04/05 02:19:21;;;;;;;1.10;1.10;;;3.30;99.90;;;;;;4996808;28;20296;-64
2023/04/05 02:21:49;;;;;;;1.10;1.10;;;3.20;99.90;;;;;;4997715;28;20276;-63
2023/04/05 02:24:16;;;;;;;1.10;1.10;;;3.10;99.90;;;;;;4996031;28;20214;-63
2023/04/05 02:26:43;;;;;;;1.27;1.17;;;3.00;99.90;;;;;;4995186;28;20696;-64
2023/04/05 02:29:10;;;;;;;1.20;1.20;;;3.00;99.90;;;;;;4994971;28;20210;-65
2023/04/05 02:31:37;;;;;;;1.00;1.00;;;2.90;99.90;;;;;;4995400;28;20249;-63
2023/04/05 02:34:04;;;;;;;1.10;1.10;;;2.90;99.90;;;;;;4995486;28;20669;-65
2023/04/05 02:36:33;;;;;;;1.15;1.15;;;2.90;99.90;;;;;;4997806;28;20218;-66
2023/04/05 02:39:01;;;;;;;1.08;1.08;;;2.80;99.90;;;;;;4999705;28;20272;-65
2023/04/05 02:41:28;;;;;;;1.30;1.30;;;2.90;99.90;;;;;;5000221;28;20677;-64
2023/04/05 02:43:54;;;;;;;1.10;1.10;;;2.90;99.90;;;;;;4997971;28;20216;-63
2023/04/05 02:46:21;;;;;;;1.30;1.20;;;2.80;99.90;;;;;;4998951;28;20320;-64
2023/04/05 02:48:48;;;;;;;1.00;1.00;;;2.80;99.90;;;;;;4999234;28;20236;-64
2023/04/05 02:51:15;;;;;;;1.20;1.15;;;2.80;99.90;;;;;;5002992;28;20212;-64
2023/04/05 02:53:43;;;;;;;1.50;1.10;;;2.80;99.90;;;;;;5004011;28;20269;-65
2023/04/05 02:56:13;;;;;;;1.33;1.23;;;2.90;99.90;;;;;;5001800;28;20597;-65
2023/04/05 02:58:40;;;;;;;1.67;1.02;;;2.90;99.90;;;;;;4999433;28;20206;-64
2023/04/05 03:01:07;;;;;;;1.20;1.20;;;2.90;99.90;;;;;;4996470;28;20316;-65
2023/04/05 03:03:34;;;;;;;1.15;1.15;;;2.80;99.90;;;;;;4999315;28;20248;-63
2023/04/05 03:06:08;;;;;;;1.17;1.17;;;2.80;99.90;;;;;;4994814;28;20233;-63
2023/04/05 03:08:37;;;;;;;1.23;1.20;;;2.80;99.90;;;;;;4995141;28;20196;-64
2023/04/05 03:11:05;;;;;;;1.40;1.30;;;2.70;99.90;;;;;;4994235;28;20206;-64
2023/04/05 03:13:33;;;;;;;1.20;1.10;;;2.70;99.90;;;;;;4994633;28;20210;-64
2023/04/05 03:16:00;;;;;;;1.25;1.25;;;2.80;99.90;;;;;;4994508;28;20226;-65
2023/04/05 03:18:28;;;;;;;1.33;1.30;;;2.80;99.90;;;;;;4994095;28;20232;-65
2023/04/05 03:20:56;;;;;;;1.20;1.20;;;2.80;99.90;;;;;;4993483;28;20218;-64
2023/04/05 03:23:26;;;;;;;1.10;1.10;;;2.90;99.90;;;;;;4994760;28;20307;-65
2023/04/05 03:25:55;;;;;;;1.10;1.10;;;2.90;99.90;;;;;;4995106;28;20298;-65
2023/04/05 03:28:23;;;;;;;1.55;1.45;;;2.90;99.90;;;;;;4995259;28;20326;-65
2023/04/05 03:30:51;;;;;;;1.33;1.33;;;3.00;99.90;;;;;;4997615;28;20209;-64
2023/04/05 03:33:18;;;;;;;1.33;1.30;;;3.00;99.90;;;;;;4995058;28;20309;-65
2023/04/05 03:35:45;;;;;;;1.02;1.02;;;3.00;99.90;;;;;;4994445;28;20214;-65
2023/04/05 03:38:12;;;;;;;1.03;1.03;;;2.90;99.90;;;;;;4994597;28;20206;-66
2023/04/05 03:40:39;;;;;;;1.30;1.20;;;3.00;99.90;;;;;;4993645;28;20216;-65
2023/04/05 03:43:06;;;;;;;1.00;1.00;;;3.00;99.90;;;;;;4994293;28;20241;-64
2023/04/05 03:45:33;;;;;;;1.33;1.30;;;3.00;99.90;;;;;;4994557;28;20716;-65
2023/04/05 03:48:02;;;;;;;1.02;1.02;;;2.90;99.90;;;;;;4994555;28;20584;-65
2023/04/05 03:50:29;;;;;;;1.30;1.20;;;2.90;99.90;;;;;;4993584;28;20673;-65
2023/04/05 03:52:56;;;;;;;1.27;1.27;;;2.90;99.90;;;;;;4995086;28;20699;-65
2023/04/05 03:55:23;;;;;;;1.10;1.10;;;2.90;99.90;;;;;;4995735;28;20216;-63
2023/04/05 03:57:50;;;;;;;1.10;1.10;;;2.90;99.90;;;;;;4995729;28;20260;-64
2023/04/05 04:00:17;;;;;;;1.20;1.20;;;2.90;99.90;;;;;;4995248;28;20233;-64
2023/04/05 04:02:45;;;;;;;1.40;1.30;;;2.90;99.90;;;;;;5002448;28;20206;-63
2023/04/05 04:05:14;;;;;;;1.00;1.00;;;2.90;99.90;;;;;;4995332;28;20208;-64
2023/04/05 04:07:41;;;;;;;1.48;1.40;;;2.90;99.90;;;;;;4994516;28;20234;-63
2023/04/05 04:10:10;;;;;;;1.33;1.27;;;2.80;99.90;;;;;;4993174;28;20216;-64
2023/04/05 04:12:37;;;;;;;1.10;1.10;;;2.80;99.90;;;;;;4993930;28;20206;-62
2023/04/05 04:15:05;;;;;;;1.20;1.20;;;2.70;99.90;;;;;;4993814;28;20213;-62
2023/04/05 04:17:33;;;;;;;1.10;1.10;;;2.70;99.90;;;;;;4992596;28;20772;-62
2023/04/05 04:20:00;;;;;;;1.13;1.10;;;2.60;99.90;;;;;;4991106;28;20206;-63
2023/04/05 04:22:31;;;;;;;1.35;1.25;;;2.60;99.90;;;;;;4991106;28;20351;-64
2023/04/05 04:25:01;;;;;;;1.20;1.20;;;2.60;99.90;;;;;;4993532;28;20206;-63
2023/04/05 04:27:29;;;;;;;1.10;1.10;;;2.60;99.90;;;;;;4994256;28;20237;-64
2023/04/05 04:30:00;;;;;;;1.30;1.27;;;2.60;99.90;;;;;;4992518;28;20237;-64
2023/04/05 04:32:46;;;;;;;1.30;1.20;;;2.60;99.90;;;;;;4993614;28;20582;-64
2023/04/05 04:35:16;;;;;;;1.00;1.00;;;2.60;99.90;;;;;;4993308;28;20209;-65
2023/04/05 04:37:46;;;;;;;1.38;1.27;;;2.60;99.90;;;;;;4993042;28;20228;-65
2023/04/05 04:40:15;;;;;;;1.17;1.17;;;2.60;99.90;;;;;;4992559;28;20555;-64
2023/04/05 04:42:45;;;;;;;1.30;1.27;;;2.60;99.90;;;;;;4993694;28;20886;-64
2023/04/05 04:45:15;;;;;;;1.23;1.23;;;2.50;99.90;;;;;;4994145;28;20221;-64
2023/04/05 04:47:42;;;;;;;1.30;1.30;;;2.40;99.90;;;;;;4993996;28;20230;-65
2023/04/05 04:50:10;;;;;;;1.20;1.10;;;2.40;99.90;;;;;;4992995;28;20213;-64
2023/04/05 04:52:37;;;;;;;1.40;1.30;;;2.40;99.90;;;;;;4998006;28;20201;-64
2023/04/05 04:55:06;;;;;;;1.20;1.20;;;2.30;99.90;;;;;;5001465;28;20206;-65
2023/04/05 04:57:33;;;;;;;1.20;1.20;;;2.20;99.90;;;;;;4993044;28;20234;-64
2023/04/05 05:00:00;;;;;;;1.75;1.35;;;2.20;99.90;;;;;;4991661;28;20669;-65
2023/04/05 05:02:28;;;;;;;1.30;1.20;;;2.20;99.90;;;;;;4992817;28;20296;-64
2023/04/05 05:04:54;;;;;;;1.38;1.35;;;2.20;99.90;;;;;;4993108;28;20235;-64
2023/04/05 05:07:21;;;;;;;1.48;1.38;;;2.10;99.90;;;;;;4992533;28;20232;-62
2023/04/05 05:09:51;;;;;;;1.23;1.23;;;2.10;99.90;;;;;;4985347;28;20358;-65
2023/04/05 05:12:21;;;;;;;1.40;1.30;;;2.00;99.90;;;;;;4992456;28;20252;-65
2023/04/05 05:14:48;;;;;;;1.33;1.33;;;1.90;99.90;;;;;;4991506;28;20241;-63
2023/04/05 05:17:14;;;;;;;2.35;1.58;;;1.80;99.90;;;;;;4995473;28;20222;-65
2023/04/05 05:19:41;;;;;;;1.50;1.40;;;1.80;99.90;;;;;;4988726;28;20217;-63
2023/04/05 05:22:08;;;;;;;1.48;1.38;;;1.80;99.90;;;;;;4993098;28;20560;-64
2023/04/05 05:24:36;;;;;;;1.30;1.30;;;1.70;99.90;;;;;;4993880;28;20300;-64
2023/04/05 05:27:03;;;;;;;1.50;1.40;;;1.70;99.90;;;;;;4994018;28;20226;-65
2023/04/05 05:29:31;;;;;;;1.20;1.20;;;1.60;99.90;;;;;;4992966;28;20214;-65
2023/04/05 05:31:58;;;;;;;1.30;1.20;;;1.70;99.90;;;;;;4993706;28;20214;-65
2023/04/05 05:34:25;;;;;;;3.30;1.60;;;1.70;99.90;;;;;;4992137;28;20237;-65
2023/04/05 05:36:53;;;;;;;1.10;1.10;;;1.70;99.90;;;;;;4990929;28;20243;-64
2023/04/05 05:39:20;;;;;;;1.10;1.10;;;1.70;99.90;;;;;;4985304;28;20234;-65
2023/04/05 05:41:48;;;;;;;1.20;1.20;;;1.80;99.90;;;;;;4988478;28;20202;-64
2023/04/05 05:44:15;;;;;;;1.15;1.15;;;1.80;99.90;;;;;;5000262;28;20218;-65
2023/04/05 05:46:43;;;;;;;1.15;1.15;;;1.80;99.90;;;;;;4986323;28;20562;-65
2023/04/05 05:49:10;;;;;;;1.25;1.20;;;1.70;99.90;;;;;;4991364;28;20209;-65
2023/04/05 05:51:37;;;;;;;1.50;1.40;;;1.80;99.90;;;;;;4992330;28;20206;-65
2023/04/05 05:54:04;;;;;;;1.30;1.20;;;1.80;99.90;;;;;;4992709;28;20216;-65
2023/04/05 05:56:30;;;;;;;1.40;1.40;;;1.80;99.90;;;;;;4997467;28;20222;-65
2023/04/05 05:58:58;;;;;;;1.20;1.20;;;1.90;99.90;;;;;;5005926;28;20743;-65
2023/04/05 06:01:26;;;;;;;1.40;1.30;;;1.90;99.90;;;;;;5005458;28;20206;-65
2023/04/05 06:03:55;;;;;;;1.40;1.30;;;1.90;99.90;;;;;;5005938;28;20292;-63
2023/04/05 06:06:22;;;;;;;1.20;1.20;;;1.90;99.90;;;;;;5007238;28;20284;-66
2023/04/05 06:08:50;;;;;;;1.50;1.40;;;1.90;99.90;;;;;;5008960;28;20245;-63
2023/04/05 06:11:18;;;;;;;1.23;1.20;;;2.00;99.90;;;;;;5005758;28;20206;-64
2023/04/05 06:13:45;;;;;;;1.40;1.30;;;2.00;99.90;;;;;;5007599;28;20220;-66
2023/04/05 06:16:12;;;;;;;1.63;1.40;;;2.10;99.90;;;;;;5007919;28;20229;-65
2023/04/05 06:18:38;;;;;;;1.30;1.30;;;2.20;99.90;;;;;;5004549;28;20301;-65
2023/04/05 06:21:07;;;;;;;1.05;1.05;;;2.30;99.90;;;;;;5003153;28;20210;-65
2023/04/05 06:23:33;;;;;;;1.40;1.30;;;2.30;99.90;;;;;;5006824;28;20293;-65
2023/04/05 06:26:00;;;;;;;1.40;1.40;;;2.40;99.90;;;;;;5006476;28;20317;-66
2023/04/05 06:28:27;;;;;;;1.40;1.30;;;2.50;99.90;;;;;;5007704;28;20280;-65
2023/04/05 06:30:55;;;;;;;1.30;1.30;;;2.60;99.90;;;;;;5003980;28;20205;-65
2023/04/05 06:33:22;;;;;;;1.00;1.00;;;2.60;99.90;;;;;;5001398;28;20213;-66
2023/04/05 06:35:49;;;;;;;1.40;1.30;;;2.70;99.90;;;;;;4993602;28;20681;-64
2023/04/05 06:38:17;;;;;;;1.15;1.15;;;2.80;99.90;;;;;;4993094;28;20253;-65
2023/04/05 06:40:44;;;;;;;1.75;1.40;;;3.00;99.90;;;;;;4992845;28;20206;-66
2023/04/05 06:43:11;;;;;;;1.23;1.13;;;3.10;99.90;;;;;;4993860;28;20296;-66
2023/04/05 06:45:38;;;;;;;1.15;1.15;;;3.20;99.90;;;;;;4995642;28;20214;-64
2023/04/05 06:48:06;;;;;;;1.30;1.20;;;3.30;99.90;;;;;;4996009;28;20709;-64
2023/04/05 06:50:33;;;;;;;1.08;1.08;;;3.40;99.90;;;;;;5001995;28;20233;-66
2023/04/05 06:53:00;;;;;;;1.23;1.20;;;3.50;99.90;;;;;;5014192;28;20669;-64
2023/04/05 06:55:28;;;;;;;1.42;1.33;;;3.60;99.90;;;;;;5015128;28;20210;-63
2023/04/05 06:57:55;;;;;;;1.93;1.73;;;3.70;99.90;;;;;;5013825;28;20229;-64
2023/04/05 07:00:22;;;;;;;1.33;1.33;;;3.90;99.90;;;;;;5012333;28;20708;-66
2023/04/05 07:02:49;;;;;;;1.60;1.53;;;4.00;99.90;;;;;;5005055;28;20245;-65
2023/04/05 07:05:16;;;;;;;1.60;1.50;;;4.00;99.90;;;;;;4998599;28;20210;-64
2023/04/05 07:07:44;;;;;;;2.00;1.90;;;3.80;99.90;;;;;;4997276;28;20234;-64
2023/04/05 07:10:11;;;;;;;1.70;1.60;;;4.00;99.90;;;;;;4997373;28;20214;-66
2023/04/05 07:12:40;;;;;;;1.97;1.87;;;3.90;99.90;;;;;;5002434;28;20206;-65
2023/04/05 07:15:08;;;;;;;1.75;1.65;;;4.00;99.90;;;;;;5001281;28;20260;-64
2023/04/05 07:17:35;;;;;;;1.98;1.88;;;3.90;99.90;;;;;;4996448;28;20697;-62
2023/04/05 07:20:05;;;;;;;1.90;1.80;;;3.70;99.90;;;;;;4995571;28;20206;-62
2023/04/05 07:22:34;;;;;;;1.90;1.80;;;3.70;99.90;;;;;;4995589;28;20694;-62
2023/04/05 07:25:01;;;;;;;2.17;2.08;;;3.80;99.90;;;;;;4995218;28;20210;-63
2023/04/05 07:27:29;;;;;;;2.05;1.95;;;3.80;99.90;;;;;;4995157;28;20237;-62
2023/04/05 07:29:57;;;;;;;1.77;1.67;;;3.80;99.90;;;;;;4999793;28;20205;-62
2023/04/05 07:32:24;;;;;;;2.10;2.00;;;3.80;99.90;;;;;;4997248;28;20209;-62
2023/04/05 07:34:51;;;;;;;2.22;2.13;;;3.90;99.90;;;;;;4994492;28;20210;-64
2023/04/05 07:37:17;;;;;;;2.37;2.17;;;4.00;99.90;;;;;;4994901;28;20217;-63
2023/04/05 07:39:44;;;;;;;2.08;1.98;;;4.20;99.90;;;;;;4995008;28;20261;-64
2023/04/05 07:42:11;;;;;;;2.20;2.10;;;4.30;99.90;;;;;;5004323;28;20248;-65
2023/04/05 07:44:38;;;;;;;2.37;2.27;;;4.40;99.90;;;;;;4998985;28;20218;-63
2023/04/05 07:47:06;;;;;;;2.60;2.40;;;4.70;99.90;;;;;;4994845;28;20233;-63
2023/04/05 07:49:33;;;;;;;2.10;2.00;;;4.80;99.90;;;;;;4993757;28;20206;-63
2023/04/05 07:52:00;;;;;;;2.00;1.90;;;4.90;99.90;;;;;;4994453;28;20305;-63
2023/04/05 07:54:27;;;;;;;1.90;1.80;;;5.10;99.90;;;;;;4994335;28;20213;-64
2023/04/05 07:56:56;;;;;;;2.08;1.98;;;5.10;99.90;;;;;;4994183;28;20226;-64
2023/04/05 07:59:23;;;;;;;1.70;1.60;;;5.20;99.90;;;;;;4993968;28;20248;-64
2023/04/05 08:01:50;;;;;;;1.90;1.80;;;5.30;99.90;;;;;;4993816;28;20636;-65
2023/04/05 08:04:19;;;;;;;1.90;1.80;;;5.40;99.90;;;;;;4994492;28;20206;-64
2023/04/05 08:06:46;;;;;;;1.90;1.80;;;5.60;99.90;;;;;;4995203;28;20229;-63
2023/04/05 08:09:13;;;;;;;2.08;1.98;;;5.70;99.90;;;;;;4993475;28;20251;-63
2023/04/05 08:11:40;;;;;;;2.10;2.00;;;5.80;99.90;;;;;;4993810;28;20241;-65
2023/04/05 08:14:07;;;;;;;5.60;2.30;;;5.90;99.90;;;;;;4993598;28;20409;-64
2023/04/05 08:16:34;;;;;;;2.40;2.20;;;6.10;99.90;;;;;;4993896;28;20226;-63
2023/04/05 08:19:01;;;;;;;2.10;2.00;;;6.20;99.90;;;;;;4993477;28;20201;-63
2023/04/05 08:21:29;;;;;;;2.20;2.10;;;6.40;99.90;;;;;;4993385;28;20214;-63
2023/04/05 08:23:57;;;;;;;1.67;1.63;;;6.40;99.90;;;;;;4993642;28;20210;-64
2023/04/05 08:26:24;;;;;;;2.00;1.90;;;6.40;99.90;;;;;;4993589;28;20234;-65
2023/04/05 08:28:51;;;;;;;1.92;1.83;;;6.40;99.90;;;;;;4993705;28;20229;-65
2023/04/05 08:31:19;;;;;;;1.80;1.70;;;6.40;99.90;;;;;;4993409;28;20218;-65
2023/04/05 08:33:46;;;;;;;1.87;1.77;;;6.60;99.90;;;;;;5004734;28;20212;-69
2023/04/05 08:36:13;;;;;;;1.77;1.67;;;6.80;99.90;;;;;;4995211;28;20229;-64
2023/04/05 08:38:41;;;;;;;1.70;1.60;;;7.00;99.90;;;;;;4993582;28;20301;-63
2023/04/05 08:41:11;;;;;;;1.85;1.75;;;7.30;99.90;;;;;;4993379;28;20214;-63
2023/04/05 08:43:51;;;;;;;1.80;1.70;;;7.30;99.90;;;;;;4997362;28;20224;-63
2023/04/05 08:46:20;;;;;;;1.63;1.55;;;7.20;99.90;;;;;;4994869;28;20229;-63
2023/04/05 08:48:47;;;;;;;1.80;1.70;;;7.30;99.90;;;;;;4994203;28;20222;-65
2023/04/05 08:51:19;;;;;;;1.85;1.75;;;7.20;99.90;;;;;;4994345;28;20205;-64
2023/04/05 08:53:47;;;;;;;1.80;1.70;;;7.30;99.90;;;;;;5005631;28;20206;-64
2023/04/05 08:56:19;;;;;;;1.30;1.30;;;7.40;99.90;;;;;;4995349;28;20226;-65
2023/04/05 08:58:50;;;;;;;1.60;1.50;;;7.50;99.90;;;;;;4993030;28;20206;-64
2023/04/05 09:01:18;;;;;;;1.65;1.60;;;7.50;99.90;;;;;;4993234;28;20206;-63
2023/04/05 09:03:46;;;;;;;1.80;1.70;;;7.60;99.90;;;;;;4992929;28;20309;-63
2023/04/05 09:06:14;;;;;;;1.60;1.50;;;7.70;99.90;;;;;;4994991;28;21074;-63
2023/04/05 09:08:41;;;;;;;1.53;1.50;;;7.70;99.90;;;;;;4993462;28;20222;-63
2023/04/05 09:11:11;;;;;;;1.67;1.58;;;7.70;99.90;;;;;;4992388;28;20210;-64
2023/04/05 09:13:38;;;;;;;1.70;1.60;;;7.80;99.90;;;;;;4992742;28;20679;-64
2023/04/05 09:16:05;;;;;;;1.63;1.53;;;7.90;99.90;;;;;;4992545;28;20265;-65
2023/04/05 09:18:32;;;;;;;1.67;1.58;;;7.90;99.90;;;;;;4992695;28;20654;-64
2023/04/05 09:21:04;;;;;;;1.63;1.53;;;7.80;99.90;;;;;;4993032;28;20214;-63
2023/04/05 09:23:31;;;;;;;1.42;1.40;;;7.80;99.90;;;;;;4993097;28;20206;-65
2023/04/05 09:25:58;;;;;;;3.67;1.53;;;7.90;99.90;;;;;;4992809;28;20695;-64
2023/04/05 09:28:39;;;;;;;1.70;1.57;;;8.10;99.90;;;;;;4992565;28;20226;-64
2023/04/05 09:31:06;;;;;;;1.57;1.47;;;8.40;99.90;;;;;;4991911;28;20240;-65
2023/04/05 09:33:34;;;;;;;1.60;1.55;;;8.60;99.90;;;;;;4992229;28;20205;-64
2023/04/05 09:36:01;;;;;;;1.73;1.63;;;8.60;99.90;;;;;;4992092;28;20667;-64
2023/04/05 09:38:42;;;;;;;1.80;1.55;;;8.60;99.90;;;;;;4993218;28;20198;-63
2023/04/05 09:41:09;;;;;;;1.42;1.40;;;8.60;99.90;;;;;;4992253;28;20213;-65
2023/04/05 09:43:39;;;;;;;1.33;1.33;;;8.50;99.90;;;;;;4992436;28;20317;-64
2023/04/05 09:46:06;;;;;;;1.40;1.30;;;8.50;99.90;;;;;;4992292;28;20261;-64
2023/04/05 09:48:48;;;;;;;1.50;1.40;;;8.60;99.90;;;;;;4992051;28;20233;-64
2023/04/05 09:51:16;;;;;;;1.20;1.20;;;8.70;99.90;;;;;;4992202;28;20210;-62
2023/04/05 09:53:59;;;;;;;1.10;1.10;;;9.00;99.90;;;;;;4993090;28;20316;-64
2023/04/05 09:56:26;;;;;;;1.37;1.37;;;9.10;99.90;;;;;;4989559;28;20291;-64
2023/04/05 09:59:00;;;;;;;1.60;1.50;;;9.20;99.90;;;;;;4991789;28;20210;-65
2023/04/05 10:01:28;;;;;;;1.40;1.40;;;9.50;99.90;;;;;;4998046;28;20216;-64
2023/04/05 10:03:56;;;;;;;1.50;1.47;;;9.80;99.90;;;;;;4998838;28;20273;-63
2023/04/05 10:06:23;;;;;;;1.70;1.60;;;9.50;99.90;;;;;;4995879;28;20230;-64
2023/04/05 10:08:51;;;;;;;2.10;1.30;;;9.50;99.90;;;;;;5002650;28;20222;-64
2023/04/05 10:11:18;;;;;;;1.60;1.50;;;9.60;99.90;;;;;;5002338;28;20212;-64
2023/04/05 10:13:46;;;;;;;1.43;1.40;;;9.50;99.90;;;;;;5004812;28;20303;-64
2023/04/05 10:16:20;;;;;;;1.20;1.20;;;9.40;99.90;;;;;;5001677;28;20294;-64
2023/04/05 10:18:50;;;;;;;1.23;1.23;;;9.50;99.90;;;;;;5000658;28;20204;-63
2023/04/05 10:21:22;;;;;;;1.30;1.20;;;9.40;99.90;;;;;;4993943;28;20206;-63
2023/04/05 10:23:57;;;;;;;1.30;1.30;;;9.20;99.90;;;;;;4992161;28;20694;-63
2023/04/05 10:26:35;;;;;;;1.23;1.23;;;9.30;99.90;;;;;;4992882;28;20237;-65
2023/04/05 10:29:11;;;;;;;1.60;1.50;;;9.40;99.90;;;;;;4995526;28;20240;-64
2023/04/05 10:31:50;;;;;;;1.50;1.40;;;9.40;99.90;;;;;;4996372;28;20577;-64
2023/04/05 10:34:27;;;;;;;1.33;1.33;;;9.50;99.90;;;;;;4996050;28;20268;-63
2023/04/05 10:36:58;;;;;;;1.40;1.30;;;9.50;99.90;;;;;;4996428;28;20225;-65
2023/04/05 10:39:28;;;;;;;1.45;1.35;;;9.50;99.90;;;;;;4995798;28;20208;-64
2023/04/05 10:42:00;;;;;;;1.10;1.10;;;9.70;99.90;;;;;;4995601;28;20210;-65
2023/04/05 10:44:30;;;;;;;1.30;1.30;;;9.70;99.90;;;;;;4995697;28;20224;-65
2023/04/05 10:46:59;;;;;;;1.50;1.40;;;9.80;99.90;;;;;;4994984;28;20621;-63
2023/04/05 10:49:33;;;;;;;1.30;1.30;;;9.90;99.90;;;;;;4994858;28;20280;-63
2023/04/05 10:52:01;;;;;;;1.30;1.30;;;10.00;99.90;;;;;;4995834;28;20205;-65
2023/04/05 10:54:29;;;;;;;1.30;1.30;;;10.20;99.90;;;;;;4998467;28;20293;-67
2023/04/05 10:56:56;;;;;;;1.30;1.30;;;10.30;99.90;;;;;;4995540;28;20229;-63
2023/04/05 10:59:24;;;;;;;1.77;1.67;;;10.50;99.90;;;;;;4995066;28;20201;-65
2023/04/05 11:01:53;;;;;;;1.50;1.50;;;10.40;99.90;;;;;;4994984;28;20214;-63
2023/04/05 11:04:21;;;;;;;1.47;1.40;;;10.40;99.90;;;;;;4994881;28;20252;-63
2023/04/05 11:06:48;;;;;;;1.77;1.43;;;10.40;99.90;;;;;;4995308;28;20229;-65
2023/04/05 11:09:17;;;;;;;1.25;1.25;;;10.50;99.90;;;;;;4995168;28;20232;-65
2023/04/05 11:11:45;;;;;;;1.42;1.33;;;10.80;99.90;;;;;;4995137;28;20682;-65
2023/04/05 11:14:21;;;;;;;1.23;1.23;;;11.00;99.90;;;;;;4995251;28;20214;-64
2023/04/05 11:16:53;;;;;;;1.40;1.30;;;11.00;99.90;;;;;;4995500;28;20276;-65
2023/04/05 11:19:41;;;;;;;1.37;1.30;;;11.00;99.90;;;;;;4995727;28;20563;-63
2023/04/05 11:22:08;;;;;;;1.20;1.20;;;10.90;99.90;;;;;;4994798;28;20214;-64
2023/04/05 11:24:51;;;;;;;1.37;1.37;;;10.80;99.90;;;;;;4995447;28;20242;-64
2023/04/05 11:27:25;;;;;;;1.67;1.57;;;11.00;99.90;;;;;;4994745;28;20226;-64
2023/04/05 11:29:53;;;;;;;1.55;1.52;;;11.20;99.90;;;;;;4994255;28;20736;-65
2023/04/05 11:32:20;;;;;;;1.67;1.58;;;11.30;99.90;;;;;;4994110;28;20681;-63
2023/04/05 11:35:00;;;;;;;1.40;1.40;;;11.30;99.90;;;;;;4994368;28;20216;-64
2023/04/05 11:37:55;;;;;;;1.20;1.20;;;11.10;99.90;;;;;;4994842;28;20296;-65
2023/04/05 11:40:27;;;;;;;1.40;1.30;;;11.20;99.90;;;;;;4994048;28;20202;-65
2023/04/05 11:43:02;;;;;;;1.10;1.10;;;11.10;99.90;;;;;;4994670;28;20210;-64
2023/04/05 11:45:30;;;;;;;1.30;1.30;;;11.30;99.90;;;;;;4995042;28;20217;-65
2023/04/05 11:47:57;;;;;;;1.50;1.40;;;11.30;99.90;;;;;;4995233;28;20237;-65
2023/04/05 11:50:28;;;;;;;1.30;1.30;;;11.20;99.90;;;;;;4996481;28;20206;-64
2023/04/05 11:53:10;;;;;;;1.47;1.47;;;11.50;99.90;;;;;;4994306;28;20218;-64
2023/04/05 11:55:37;;;;;;;1.15;1.15;;;11.40;99.90;;;;;;4991769;28;20214;-65
2023/04/05 11:58:12;;;;;;;1.33;1.33;;;11.50;99.90;;;;;;4993947;28;20230;-64
2023/04/05 12:00:38;;;;;;;1.30;1.30;;;11.50;99.90;;;;;;4993453;28;20735;-65
2023/04/05 12:03:05;;;;;;;1.30;1.30;;;11.40;99.90;;;;;;4994081;28;20695;-65
2023/04/05 12:05:46;;;;;;;1.40;1.30;;;11.50;99.90;;;;;;4994500;28;20658;-65
2023/04/05 12:08:13;;;;;;;1.40;1.30;;;11.70;99.90;;;;;;4994960;28;20212;-68
2023/04/05 12:10:40;;;;;;;1.23;1.23;;;11.70;99.90;;;;;;4994878;28;20202;-63
2023/04/05 12:13:07;;;;;;;1.50;1.40;;;11.90;99.90;;;;;;4993887;28;20209;-63
2023/04/05 12:15:37;;;;;;;1.65;1.55;;;12.00;99.90;;;;;;4994055;28;20210;-64
2023/04/05 12:18:06;;;;;;;2.80;1.40;;;12.10;99.90;;;;;;4993561;28;20334;-64
2023/04/05 12:20:33;;;;;;;1.55;1.45;;;11.80;99.90;;;;;;4993228;28;20634;-64
2023/04/05 12:23:03;;;;;;;1.30;1.30;;;11.50;99.90;;;;;;4993553;28;20596;-64
2023/04/05 12:25:31;;;;;;;1.23;1.23;;;11.30;99.90;;;;;;4993675;28;20707;-65
2023/04/05 12:28:06;;;;;;;1.50;1.40;;;11.50;99.90;;;;;;4993669;28;20222;-64
2023/04/05 12:30:36;;;;;;;1.42;1.38;;;11.80;99.90;;;;;;4994163;28;20645;-64
2023/04/05 12:33:08;;;;;;;1.45;1.35;;;11.90;99.90;;;;;;4994294;28;20202;-63
2023/04/05 12:35:35;;;;;;;1.60;1.50;;;12.00;99.90;;;;;;4993327;28;20210;-63
2023/04/05 12:38:05;;;;;;;1.40;1.40;;;11.90;99.90;;;;;;4993591;28;20928;-63
2023/04/05 12:40:33;;;;;;;1.40;1.30;;;11.90;99.90;;;;;;4994342;28;20209;-64
2023/04/05 12:43:05;;;;;;;1.30;1.30;;;11.70;99.90;;;;;;4993359;28;20221;-65
2023/04/05 12:45:38;;;;;;;1.35;1.30;;;11.70;99.90;;;;;;5001347;28;20301;-65
2023/04/05 12:48:09;;;;;;;1.40;1.30;;;11.80;99.90;;;;;;4996472;28;21024;-64
2023/04/05 12:50:36;;;;;;;1.48;1.40;;;12.00;99.90;;;;;;4995882;28;20213;-67
2023/04/05 12:53:07;;;;;;;1.40;1.30;;;12.20;99.90;;;;;;4997048;28;20237;-64
2023/04/05 12:55:42;;;;;;;1.40;1.30;;;12.20;99.90;;;;;;4996309;28;20289;-63
2023/04/05 12:58:09;;;;;;;1.50;1.40;;;11.90;99.90;;;;;;4993686;28;20220;-63
2023/04/05 13:00:36;;;;;;;1.20;1.20;;;11.90;99.90;;;;;;4993093;28;20202;-65
2023/04/05 13:03:03;;;;;;;1.50;1.40;;;12.20;99.90;;;;;;4993122;28;20210;-64
2023/04/05 13:05:30;;;;;;;1.60;1.50;;;11.90;99.90;;;;;;4993237;28;20676;-64